Time;durP1;ratioP1;P1;durP2;ratioP2;P2;SDS_P1;SDS_P2;PMS_P1;PMS_P2;Temp;Humidity;BMP_temperature;BMP_pressure;BME280_temperature;BME280_humidity;BME280_pressure;Samples;Min_cycle;Max_cycle;Signal;HPM_P1;HPM_P2
2022/12/23 00:00:18;;;;;;;1999.90;999.90;;;;;;;8.45;100.00;94010.31;5014489;28;20244;-63
2022/12/23 00:02:44;;;;;;;1999.90;999.90;;;;;;;8.44;100.00;93904.66;5014624;28;20173;-63
2022/12/23 00:05:11;;;;;;;1999.90;999.90;;;;;;;8.39;100.00;93799.91;5014462;28;20253;-62
2022/12/23 00:07:36;;;;;;;1999.90;999.90;;;;;;;8.31;100.00;93727.81;5014644;28;20179;-65
2022/12/23 00:10:02;;;;;;;1999.90;999.90;;;;;;;8.23;100.00;93627.88;5014477;28;20183;-66
2022/12/23 00:15:12;;;;;;;1999.90;999.90;;;;;;;8.19;100.00;93486.53;5015544;28;20213;-66
2022/12/23 00:17:42;;;;;;;1999.90;999.90;;;;;;;8.16;100.00;93446.63;5014858;28;20274;-66
2022/12/23 00:20:11;;;;;;;1999.90;999.90;;;;;;;8.13;100.00;93411.41;5014828;28;20202;-66
2022/12/23 00:25:38;;;;;;;1999.90;999.90;;;;;;;8.06;100.00;93358.03;5015469;28;20172;-65
2022/12/23 00:28:10;;;;;;;1999.90;999.90;;;;;;;8.03;100.00;93315.44;5014761;28;20196;-66
2022/12/23 00:30:46;;;;;;;1999.90;999.90;;;;;;;8.01;100.00;93263.47;5014207;28;20206;-66
2022/12/23 00:33:14;;;;;;;1999.90;999.90;;;;;;;7.99;100.00;93303.16;5014772;28;20205;-65
2022/12/23 00:35:40;;;;;;;1999.90;999.90;;;;;;;8.01;100.00;93276.31;5014712;28;20241;-67
2022/12/23 00:38:06;;;;;;;1999.90;999.90;;;;;;;8.05;100.00;93257.91;5013822;28;20178;-66
2022/12/23 00:43:16;;;;;;;1999.90;999.90;;;;;;;8.04;100.00;93196.59;5015498;28;20221;-64
2022/12/23 00:45:41;;;;;;;1999.90;999.90;;;;;;;8.01;100.00;93179.22;5014136;28;20182;-67
2022/12/23 00:50:52;;;;;;;1999.90;999.90;;;;;;;7.95;100.00;93151.09;5015179;28;20170;-73
2022/12/23 00:53:18;;;;;;;1999.90;999.90;;;;;;;7.97;100.00;93132.38;5013975;28;20179;-72
2022/12/23 00:55:46;;;;;;;1999.90;999.90;;;;;;;7.95;100.00;93113.06;5014026;28;20179;-72
2022/12/23 00:58:12;;;;;;;1999.90;999.90;;;;;;;7.90;100.00;93105.47;5013715;28;20182;-71
2022/12/23 01:06:06;;;;;;;1999.90;999.90;;;;;;;7.88;100.00;93123.41;5014830;28;20627;-66
2022/12/23 01:08:31;;;;;;;1999.90;999.90;;;;;;;7.86;100.00;93123.84;5013821;28;20179;-66
2022/12/23 01:11:02;;;;;;;1999.90;999.90;;;;;;;7.89;100.00;93117.53;5013963;28;20172;-66
2022/12/23 01:13:27;;;;;;;1999.90;999.90;;;;;;;7.89;100.00;93120.25;5013444;28;20165;-66
2022/12/23 01:16:06;;;;;;;1999.90;999.90;;;;;;;7.84;100.00;93106.47;5013352;28;20229;-66
2022/12/23 01:18:33;;;;;;;1999.90;999.90;;;;;;;7.78;100.00;93111.72;5014346;28;20193;-66
2022/12/23 01:21:03;;;;;;;1999.90;999.90;;;;;;;7.77;100.00;93102.06;5014071;28;20213;-66
2022/12/23 01:23:29;;;;;;;1999.90;999.90;;;;;;;7.78;100.00;93098.13;5014120;28;20167;-73
2022/12/23 01:25:58;;;;;;;1999.90;999.90;;;;;;;7.73;100.00;93106.84;5013609;28;20206;-73
2022/12/23 01:28:24;;;;;;;1999.90;999.90;;;;;;;7.80;100.00;93106.59;5013620;28;20186;-72
2022/12/23 01:30:49;;;;;;;1999.90;999.90;;;;;;;7.80;100.00;93084.88;5014117;28;20170;-73
2022/12/23 01:33:15;;;;;;;1999.90;999.90;;;;;;;7.80;100.00;93071.28;5013997;28;20529;-73
2022/12/23 01:35:40;;;;;;;1999.90;999.90;;;;;;;7.79;100.00;93067.03;5014706;28;20174;-74
2022/12/23 01:38:05;;;;;;;1999.90;999.90;;;;;;;7.85;100.00;93072.66;5014042;28;20181;-65
2022/12/23 01:40:40;;;;;;;1999.90;999.90;;;;;;;7.84;100.00;93052.13;5013555;28;20207;-64
2022/12/23 01:43:05;;;;;;;1999.90;999.90;;;;;;;7.83;100.00;93045.94;5014023;28;20225;-68
2022/12/23 01:45:32;;;;;;;1999.90;999.90;;;;;;;7.79;100.00;93048.03;5014135;28;20179;-68
2022/12/23 01:48:09;;;;;;;1999.90;999.90;;;;;;;7.77;100.00;93058.59;5013432;28;20179;-72
2022/12/23 01:50:39;;;;;;;1999.90;999.90;;;;;;;7.77;100.00;93053.16;5013277;28;20740;-71
2022/12/23 01:53:18;;;;;;;1999.90;999.90;;;;;;;7.79;100.00;93034.44;5013352;28;20179;-71
2022/12/23 01:55:51;;;;;;;1999.90;999.90;;;;;;;7.78;100.00;93046.50;5013395;28;20210;-71
2022/12/23 01:58:22;;;;;;;1999.90;999.90;;;;;;;7.79;100.00;93045.31;5013836;28;20167;-65
2022/12/23 02:03:43;;;;;;;1999.90;999.90;;;;;;;7.81;100.00;93037.50;5014487;28;20258;-65
2022/12/23 02:09:23;;;;;;;1999.90;999.90;;;;;;;7.82;100.00;93028.13;5014549;28;20329;-65
2022/12/23 02:11:54;;;;;;;1999.90;999.90;;;;;;;7.87;100.00;93019.41;5017250;28;20314;-65
2022/12/23 02:17:30;;;;;;;1999.90;999.90;;;;;;;7.90;100.00;93013.06;5017589;28;20631;-63
2022/12/23 02:20:05;;;;;;;1999.90;999.90;;;;;;;7.88;100.00;93015.50;5017177;28;20206;-66
2022/12/23 02:22:52;;;;;;;1999.90;999.90;;;;;;;7.92;100.00;93013.41;5016341;28;20225;-65
2022/12/23 02:25:55;;;;;;;1999.90;999.90;;;;;;;7.94;100.00;93004.81;5016606;28;20262;-65
2022/12/23 02:29:02;;;;;;;1999.90;999.90;;;;;;;7.94;100.00;93007.53;5016103;28;20197;-65
2022/12/23 02:31:54;;;;;;;1999.90;999.90;;;;;;;7.90;100.00;93012.34;4996641;28;20225;-65
2022/12/23 02:34:39;;;;;;;1999.90;999.90;;;;;;;7.93;100.00;93003.28;5017026;28;20186;-62
2022/12/23 02:37:11;;;;;;;1999.90;999.90;;;;;;;7.93;100.00;93001.31;5016048;28;20179;-69
2022/12/23 02:39:44;;;;;;;1999.90;999.90;;;;;;;7.97;100.00;93001.22;5016279;28;20199;-70
2022/12/23 02:42:32;;;;;;;1999.90;999.90;;;;;;;7.98;100.00;92989.88;5016809;28;20185;-69
2022/12/23 02:45:23;;;;;;;1999.90;999.90;;;;;;;8.01;100.00;92986.28;5016198;28;20190;-70
2022/12/23 02:47:55;;;;;;;1999.90;999.90;;;;;;;8.13;100.00;92980.00;5016579;28;20179;-70
2022/12/23 02:50:28;;;;;;;1999.90;999.90;;;;;;;8.21;100.00;92959.53;5016606;28;20175;-70
2022/12/23 02:52:57;;;;;;;1999.90;999.90;;;;;;;8.28;100.00;92940.22;5016037;28;20271;-65
2022/12/23 02:55:28;;;;;;;1999.90;999.90;;;;;;;8.35;100.00;92934.50;5016126;28;20175;-65
2022/12/23 02:57:56;;;;;;;1999.90;999.90;;;;;;;8.44;100.00;92931.78;5015724;28;20169;-66
2022/12/23 03:00:22;;;;;;;1999.90;999.90;;;;;;;8.52;100.00;92922.13;5015829;28;20207;-66
2022/12/23 03:02:48;;;;;;;1999.90;999.90;;;;;;;8.58;100.00;92925.78;5015653;28;20325;-66
2022/12/23 03:05:24;;;;;;;1999.90;999.90;;;;;;;8.68;100.00;92908.28;5015823;28;20371;-66
2022/12/23 03:07:52;;;;;;;1999.90;999.90;;;;;;;8.85;100.00;92868.66;5015666;28;20179;-66
2022/12/23 03:10:22;;;;;;;1999.90;999.90;;;;;;;8.95;100.00;92872.91;5015671;28;20187;-66
2022/12/23 03:13:12;;;;;;;1999.90;999.90;;;;;;;8.97;100.00;92864.28;5016405;28;20270;-66
2022/12/23 03:16:04;;;;;;;1999.90;999.90;;;;;;;9.09;100.00;92850.53;5016360;28;20179;-63
2022/12/23 03:18:41;;;;;;;1999.90;999.90;;;;;;;9.15;100.00;92840.50;5016114;28;20176;-63
2022/12/23 03:21:21;;;;;;;1999.90;999.90;;;;;;;9.21;100.00;92833.25;5015586;28;20202;-63
2022/12/23 03:24:02;;;;;;;1999.90;999.90;;;;;;;9.28;100.00;92830.22;5015253;28;20171;-63
2022/12/23 03:26:39;;;;;;;1999.90;999.90;;;;;;;9.29;100.00;92839.88;5015938;28;20171;-63
2022/12/23 03:29:21;;;;;;;1999.90;999.90;;;;;;;9.37;100.00;92832.91;5015408;28;20178;-65
2022/12/23 03:31:49;;;;;;;1999.90;999.90;;;;;;;9.41;100.00;92838.22;5015697;28;20283;-66
2022/12/23 03:34:19;;;;;;;1999.90;999.90;;;;;;;9.43;100.00;92841.97;5014964;28;20178;-65
2022/12/23 03:36:50;;;;;;;1999.90;999.90;;;;;;;9.49;100.00;92845.59;5014985;28;20273;-66
2022/12/23 03:39:20;;;;;;;1999.90;999.90;;;;;;;9.53;100.00;92840.75;5015002;28;20176;-66
2022/12/23 03:41:55;;;;;;;1999.90;999.90;;;;;;;9.58;100.00;92848.28;5015592;28;20167;-65
2022/12/23 03:44:29;;;;;;;1999.90;999.90;;;;;;;9.62;100.00;92843.44;5015414;28;20167;-64
2022/12/23 03:47:06;;;;;;;1999.90;999.90;;;;;;;9.65;100.00;92864.31;5015375;28;20186;-67
2022/12/23 03:49:39;;;;;;;1999.90;999.90;;;;;;;9.70;100.00;92877.31;5015573;28;20182;-66
2022/12/23 03:52:31;;;;;;;1999.90;999.90;;;;;;;9.72;100.00;92887.75;5015054;28;20225;-65
2022/12/23 03:55:01;;;;;;;1999.90;999.90;;;;;;;9.75;100.00;92903.97;5008526;28;20273;-66
2022/12/23 03:57:33;;;;;;;1999.90;999.90;;;;;;;9.78;100.00;92918.63;5014996;28;20174;-66
2022/12/23 03:59:59;;;;;;;1999.90;999.90;;;;;;;9.76;100.00;92932.72;5015085;28;20195;-66
2022/12/23 04:02:45;;;;;;;1999.90;999.90;;;;;;;9.81;100.00;92948.44;5014834;28;20175;-66
2022/12/23 04:05:29;;;;;;;1999.90;999.90;;;;;;;9.83;100.00;92959.66;5014851;28;20266;-72
2022/12/23 04:08:00;;;;;;;1999.90;999.90;;;;;;;9.83;100.00;92976.00;5014640;28;20560;-64
2022/12/23 04:10:26;;;;;;;1999.90;999.90;;;;;;;9.81;100.00;92997.50;5014647;28;20176;-64
2022/12/23 04:12:53;;;;;;;1999.90;999.90;;;;;;;9.88;100.00;93010.06;5014520;28;20234;-64
2022/12/23 04:15:23;;;;;;;1999.90;999.90;;;;;;;9.89;100.00;93023.25;5015001;28;20179;-64
2022/12/23 04:17:50;;;;;;;1999.90;999.90;;;;;;;9.89;100.00;93030.66;5014822;28;20172;-64
2022/12/23 04:20:16;;;;;;;1999.90;999.90;;;;;;;9.95;100.00;93051.41;5014514;28;20221;-64
2022/12/23 04:22:44;;;;;;;1999.90;999.90;;;;;;;9.95;100.00;93058.84;5014945;28;20596;-64
2022/12/23 04:25:11;;;;;;;1999.90;999.90;;;;;;;9.96;100.00;93068.53;5014307;28;20194;-64
2022/12/23 04:27:36;;;;;;;1999.90;999.90;;;;;;;9.95;100.00;93084.09;5014877;28;20171;-64
2022/12/23 04:30:03;;;;;;;1999.90;999.90;;;;;;;9.95;100.00;93089.56;5013896;28;20186;-64
2022/12/23 04:32:29;;;;;;;1999.90;999.90;;;;;;;9.95;100.00;93092.28;5013979;28;20183;-64
2022/12/23 04:34:54;;;;;;;1999.90;999.90;;;;;;;9.98;100.00;93094.09;5014145;28;20186;-64
2022/12/23 04:37:19;;;;;;;1999.90;999.90;;;;;;;10.00;100.00;93099.09;5014688;28;20187;-64
2022/12/23 04:39:45;;;;;;;1999.90;999.90;;;;;;;10.00;100.00;93113.50;5014431;28;20211;-62
2022/12/23 04:42:10;;;;;;;1999.90;999.90;;;;;;;9.99;100.00;93120.16;5013548;28;20207;-63
2022/12/23 04:44:35;;;;;;;1999.90;999.90;;;;;;;9.99;100.00;93125.59;5014133;28;20235;-65
2022/12/23 04:47:01;;;;;;;1999.90;999.90;;;;;;;9.99;100.00;93138.50;5013965;28;20175;-65
2022/12/23 04:49:26;;;;;;;1999.90;999.90;;;;;;;9.98;100.00;93145.91;5013860;28;20179;-65
2022/12/23 04:51:51;;;;;;;1999.90;999.90;;;;;;;9.98;100.00;93161.50;5014629;28;20175;-65
2022/12/23 04:54:17;;;;;;;1999.90;999.90;;;;;;;10.00;100.00;93165.31;5013897;28;20203;-64
2022/12/23 04:56:42;;;;;;;1999.90;999.90;;;;;;;10.01;100.00;93179.69;5013516;28;20175;-66
2022/12/23 04:59:09;;;;;;;1999.90;999.90;;;;;;;10.04;100.00;93182.28;5013693;28;20214;-65
2022/12/23 05:01:34;;;;;;;1999.90;999.90;;;;;;;10.07;100.00;93205.94;5013906;28;20218;-66
2022/12/23 05:03:59;;;;;;;1999.90;999.90;;;;;;;10.09;100.00;93208.97;5013699;28;20210;-71
2022/12/23 05:06:25;;;;;;;1999.90;999.90;;;;;;;10.10;100.00;93220.63;5013753;28;20291;-71
2022/12/23 05:08:50;;;;;;;1999.90;999.90;;;;;;;10.09;100.00;93227.28;5014457;28;20212;-72
2022/12/23 05:11:15;;;;;;;1999.90;999.90;;;;;;;10.17;100.00;93225.03;5013283;28;20262;-72
2022/12/23 05:13:41;;;;;;;1999.90;999.90;;;;;;;10.19;100.00;93258.06;5013468;28;20274;-72
2022/12/23 05:16:06;;;;;;;1999.90;999.90;;;;;;;10.23;100.00;93266.88;5013521;28;20187;-72
2022/12/23 05:18:31;;;;;;;1999.90;999.90;;;;;;;10.24;100.00;93284.75;5013352;28;20183;-72
2022/12/23 05:20:57;;;;;;;1999.90;999.90;;;;;;;10.25;100.00;93306.13;5013577;28;20217;-70
2022/12/23 05:23:22;;;;;;;1999.90;999.90;;;;;;;10.29;100.00;93305.97;5014494;28;20183;-65
2022/12/23 05:25:52;;;;;;;1999.90;999.90;;;;;;;10.26;100.00;93313.09;5013482;28;20171;-71
2022/12/23 05:28:19;;;;;;;1999.90;999.90;;;;;;;10.25;100.00;93300.66;5013436;28;20270;-67
2022/12/23 05:30:44;;;;;;;1999.90;999.90;;;;;;;10.18;100.00;93287.31;5013401;28;20178;-68
2022/12/23 05:33:09;;;;;;;1999.90;999.90;;;;;;;10.19;100.00;93274.44;5013272;28;20278;-67
2022/12/23 05:35:35;;;;;;;1999.90;999.90;;;;;;;10.13;100.00;93268.06;5013520;28;20230;-67
2022/12/23 05:38:02;;;;;;;1999.90;999.90;;;;;;;10.10;100.00;93259.56;5013402;28;20175;-67
2022/12/23 05:40:28;;;;;;;1999.90;999.90;;;;;;;10.13;100.00;93247.00;5013486;28;20199;-63
2022/12/23 05:42:53;;;;;;;1999.90;999.90;;;;;;;10.13;100.00;93242.28;5013460;28;20180;-64
2022/12/23 05:45:19;;;;;;;1999.90;999.90;;;;;;;10.13;100.00;93234.13;5015433;28;20179;-64
2022/12/23 05:47:45;;;;;;;1999.90;999.90;;;;;;;10.10;100.00;93215.91;5017055;28;20233;-65
2022/12/23 05:50:10;;;;;;;1999.90;999.90;;;;;;;10.12;100.00;93212.00;5017086;28;20179;-64
2022/12/23 05:52:36;;;;;;;1999.90;999.90;;;;;;;10.07;100.00;93200.50;5016962;28;20266;-61
2022/12/23 05:55:02;;;;;;;1999.90;999.90;;;;;;;10.00;100.00;93200.75;5017436;28;20182;-62
2022/12/23 05:57:27;;;;;;;1999.90;999.90;;;;;;;9.96;100.00;93204.84;5017524;28;20262;-64
2022/12/23 05:59:52;;;;;;;1999.90;999.90;;;;;;;9.93;100.00;93192.88;5016937;28;20270;-67
2022/12/23 06:02:20;;;;;;;1999.90;999.90;;;;;;;9.95;100.00;93204.06;5016962;28;20176;-67
2022/12/23 06:04:46;;;;;;;1999.90;999.90;;;;;;;9.97;100.00;93189.97;5016322;28;20238;-67
2022/12/23 06:07:11;;;;;;;1999.90;999.90;;;;;;;9.97;100.00;93185.28;5016631;28;20176;-67
2022/12/23 06:09:36;;;;;;;1999.90;999.90;;;;;;;10.00;100.00;93191.81;5016940;28;20217;-67
2022/12/23 06:12:02;;;;;;;1999.90;999.90;;;;;;;10.01;100.00;93180.44;5017030;28;20222;-69
2022/12/23 06:14:27;;;;;;;1999.90;999.90;;;;;;;10.10;100.00;93194.09;5016628;28;20172;-65
2022/12/23 06:16:52;;;;;;;1999.90;999.90;;;;;;;10.13;100.00;93204.13;5016550;28;20199;-64
2022/12/23 06:19:18;;;;;;;1999.90;999.90;;;;;;;10.14;100.00;93205.63;5016554;28;20171;-64
2022/12/23 06:21:44;;;;;;;1999.90;999.90;;;;;;;10.18;100.00;93215.63;5016760;28;20226;-64
2022/12/23 06:24:09;;;;;;;1999.90;999.90;;;;;;;10.22;100.00;93210.78;5016278;28;20187;-65
2022/12/23 06:26:35;;;;;;;1999.90;999.90;;;;;;;10.25;100.00;93220.78;5017004;28;20203;-64
2022/12/23 06:29:01;;;;;;;1999.90;999.90;;;;;;;10.29;100.00;93221.41;5015868;28;20187;-64
2022/12/23 06:31:26;;;;;;;1999.90;999.90;;;;;;;10.24;100.00;93222.78;5016058;28;20190;-65
2022/12/23 06:33:51;;;;;;;1999.90;999.90;;;;;;;10.22;100.00;93244.28;5016003;28;20179;-69
2022/12/23 06:36:17;;;;;;;1999.90;999.90;;;;;;;10.22;100.00;93259.88;5016230;28;20259;-67
2022/12/23 06:38:42;;;;;;;1999.90;999.90;;;;;;;10.22;100.00;93273.50;5016543;28;20175;-67
2022/12/23 06:41:07;;;;;;;1999.90;999.90;;;;;;;10.22;100.00;93287.16;5015936;28;20674;-67
2022/12/23 06:43:33;;;;;;;1999.90;999.90;;;;;;;10.19;100.00;93307.91;5015764;28;20270;-66
2022/12/23 06:45:58;;;;;;;1999.90;999.90;;;;;;;10.23;100.00;93307.78;5016010;28;20180;-66
2022/12/23 06:48:23;;;;;;;1999.90;999.90;;;;;;;10.27;100.00;93322.03;5016601;28;20179;-67
2022/12/23 06:50:49;;;;;;;1999.90;999.90;;;;;;;10.31;100.00;93344.47;5015947;28;20176;-62
2022/12/23 06:53:14;;;;;;;1999.90;999.90;;;;;;;10.33;100.00;93342.03;5015983;28;20172;-65
2022/12/23 06:55:39;;;;;;;1999.90;999.90;;;;;;;10.39;100.00;93357.38;5015165;28;20266;-63
2022/12/23 06:58:05;;;;;;;1999.90;999.90;;;;;;;10.47;100.00;93352.38;5015877;28;20171;-66
2022/12/23 07:00:30;;;;;;;1999.90;999.90;;;;;;;10.50;100.00;93378.75;5015655;28;20246;-66
2022/12/23 07:02:55;;;;;;;1999.90;999.90;;;;;;;10.52;100.00;93404.38;5016255;28;20186;-66
2022/12/23 07:05:21;;;;;;;1999.90;999.90;;;;;;;10.53;100.00;93407.88;5015065;28;20323;-66
2022/12/23 07:07:46;;;;;;;1999.90;999.90;;;;;;;10.59;100.00;93408.81;5016155;28;20184;-67
2022/12/23 07:10:12;;;;;;;1999.90;999.90;;;;;;;10.61;100.00;93425.47;5016183;28;20171;-65
2022/12/23 07:12:37;;;;;;;1999.90;999.90;;;;;;;10.68;100.00;93427.94;5015554;28;20175;-67
2022/12/23 07:15:04;;;;;;;1999.90;999.90;;;;;;;10.72;100.00;93450.38;5015415;28;20172;-66
2022/12/23 07:17:29;;;;;;;1999.90;999.90;;;;;;;10.77;100.00;93447.03;5015890;28;20187;-69
2022/12/23 07:19:55;;;;;;;1999.90;999.90;;;;;;;10.71;100.00;93466.00;5014979;28;20199;-65
2022/12/23 07:22:20;;;;;;;1999.90;999.90;;;;;;;10.72;100.00;93455.84;5015416;28;20266;-67
2022/12/23 07:24:45;;;;;;;1999.90;999.90;;;;;;;10.69;100.00;93452.06;5014977;28;20182;-69
2022/12/23 07:27:11;;;;;;;1999.90;999.90;;;;;;;10.66;100.00;93457.63;5015259;28;20172;-68
2022/12/23 07:29:36;;;;;;;1999.90;999.90;;;;;;;10.74;100.00;93447.97;5014823;28;20258;-65
2022/12/23 07:32:03;;;;;;;1999.90;999.90;;;;;;;10.78;100.00;93459.50;5015211;28;20206;-64
2022/12/23 07:34:28;;;;;;;1999.90;999.90;;;;;;;10.79;100.00;93458.28;5015140;28;20273;-64
2022/12/23 07:36:54;;;;;;;1999.90;999.90;;;;;;;10.87;100.00;93462.25;5015697;28;20168;-65
2022/12/23 07:39:19;;;;;;;1999.90;999.90;;;;;;;10.89;100.00;93476.22;5014732;28;20258;-66
2022/12/23 07:41:45;;;;;;;1999.90;999.90;;;;;;;10.90;100.00;93480.47;5015022;28;20173;-64
2022/12/23 07:44:10;;;;;;;1999.90;999.90;;;;;;;10.93;100.00;93493.22;5014799;28;20187;-64
2022/12/23 07:46:35;;;;;;;1999.90;999.90;;;;;;;10.88;100.00;93496.53;5014820;28;20176;-73
2022/12/23 07:49:01;;;;;;;1999.90;999.90;;;;;;;10.89;100.00;93503.53;5015021;28;20183;-69
2022/12/23 07:51:26;;;;;;;1999.90;999.90;;;;;;;10.86;100.00;93501.69;5014689;28;20184;-66
2022/12/23 07:53:52;;;;;;;1999.90;999.90;;;;;;;10.85;100.00;93494.72;4998446;28;20518;-66
2022/12/23 07:56:17;;;;;;;1999.90;999.90;;;;;;;10.83;100.00;93481.50;5014333;28;20185;-67
2022/12/23 07:58:50;;;;;;;1999.90;999.90;;;;;;;10.86;100.00;93479.84;5014392;28;20179;-66
2022/12/23 08:01:16;;;;;;;1999.90;999.90;;;;;;;10.88;100.00;93464.53;5014895;28;20202;-66
2022/12/23 08:03:41;;;;;;;1999.90;999.90;;;;;;;10.92;100.00;93439.81;5014724;28;20185;-65
2022/12/23 08:06:11;;;;;;;1999.90;999.90;;;;;;;10.97;100.00;93433.75;5014411;28;20278;-69
2022/12/23 08:08:37;;;;;;;1999.90;999.90;;;;;;;11.12;100.00;93432.72;5013986;28;20171;-65
2022/12/23 08:11:05;;;;;;;1999.90;999.90;;;;;;;11.87;100.00;93417.34;5015117;28;20257;-63
2022/12/23 08:13:33;;;;;;;1999.90;999.90;;;;;;;12.23;100.00;93450.06;5015085;28;20193;-65
2022/12/23 08:16:00;;;;;;;1999.90;999.90;;;;;;;12.41;100.00;93499.28;5014367;28;20209;-64
2022/12/23 08:18:28;;;;;;;1999.90;999.90;;;;;;;12.25;100.00;93595.41;5014265;28;20186;-64
2022/12/23 08:20:54;;;;;;;1999.90;999.90;;;;;;;12.13;100.00;93681.91;5014185;28;20205;-64
2022/12/23 08:23:19;;;;;;;1999.90;999.90;;;;;;;12.00;100.00;93737.97;5014335;28;20182;-65
2022/12/23 08:25:45;;;;;;;1999.90;999.90;;;;;;;11.82;100.00;93776.22;5013993;28;20183;-64
2022/12/23 08:28:10;;;;;;;1999.90;999.90;;;;;;;11.63;100.00;93797.28;5014381;28;20189;-72
2022/12/23 08:30:35;;;;;;;1999.90;999.90;;;;;;;11.55;100.00;93814.34;5014017;28;20172;-71
2022/12/23 08:33:01;;;;;;;1999.90;999.90;;;;;;;11.47;100.00;93813.84;5014283;28;20187;-73
2022/12/23 08:35:26;;;;;;;1999.90;999.90;;;;;;;11.42;100.00;93808.19;5014369;28;20176;-71
2022/12/23 08:37:51;;;;;;;1999.90;999.90;;;;;;;11.37;100.00;93795.13;5014057;28;20234;-72
2022/12/23 08:40:17;;;;;;;1999.90;999.90;;;;;;;11.36;100.00;93790.88;5014020;28;20206;-72
2022/12/23 08:42:42;;;;;;;1999.90;999.90;;;;;;;11.37;100.00;93778.72;5014591;28;20185;-63
2022/12/23 08:45:08;;;;;;;1999.90;999.90;;;;;;;11.38;100.00;93761.09;5013725;28;20175;-78
2022/12/23 08:47:33;;;;;;;1999.90;999.90;;;;;;;11.39;100.00;93765.34;5013656;28;20222;-77
2022/12/23 08:49:58;;;;;;;1999.90;999.90;;;;;;;11.46;100.00;93737.75;5013915;28;20186;-78
2022/12/23 08:52:24;;;;;;;1999.90;999.90;;;;;;;11.58;100.00;93739.66;5014537;28;20213;-77
2022/12/23 08:54:49;;;;;;;1999.90;999.90;;;;;;;11.85;100.00;93737.03;5013755;28;20186;-76
2022/12/23 08:57:14;;;;;;;1999.90;999.90;;;;;;;12.72;100.00;93716.16;5014306;28;20176;-75
2022/12/23 08:59:40;;;;;;;1999.90;999.90;;;;;;;13.28;100.00;93791.19;5014044;28;20201;-61
2022/12/23 09:02:05;;;;;;;1999.90;999.90;;;;;;;13.34;100.00;93909.97;5013984;28;20185;-63
2022/12/23 09:04:31;;;;;;;1999.90;999.90;;;;;;;13.29;100.00;94011.25;5013448;28;20202;-61
2022/12/23 09:06:56;;;;;;;1999.90;999.90;;;;;;;13.09;100.00;94091.19;5014436;28;20185;-61
2022/12/23 09:09:21;;;;;;;1999.90;999.90;;;;;;;12.99;100.00;94146.38;5013717;28;20179;-62
2022/12/23 09:11:47;;;;;;;1999.90;999.90;;;;;;;12.70;100.00;94178.75;5013332;28;20181;-62
2022/12/23 09:14:33;;;;;;;1999.90;999.90;;;;;;;12.56;100.00;94188.25;5013359;28;20182;-62
2022/12/23 09:16:58;;;;;;;1999.90;999.90;;;;;;;12.37;100.00;94194.00;5014041;28;20174;-61
2022/12/23 09:19:24;;;;;;;1999.90;999.90;;;;;;;12.29;100.00;94165.34;5015799;28;20170;-64
2022/12/23 09:21:49;;;;;;;1999.90;999.90;;;;;;;12.38;100.00;94136.06;5017667;28;20182;-65
2022/12/23 09:24:14;;;;;;;1999.90;999.90;;;;;;;12.54;100.00;94099.53;5017668;28;20185;-63
2022/12/23 09:26:40;;;;;;;1999.90;999.90;;;;;;;12.51;100.00;94067.56;5017523;28;20201;-65
2022/12/23 09:29:05;;;;;;;1999.90;999.90;;;;;;;12.52;100.00;94052.66;5017451;28;20178;-66
2022/12/23 09:31:30;;;;;;;1999.90;999.90;;;;;;;12.54;100.00;94022.84;5017485;28;20193;-65
2022/12/23 09:33:56;;;;;;;1999.90;999.90;;;;;;;12.50;100.00;94006.53;5017407;28;20182;-67
2022/12/23 09:36:21;;;;;;;1999.90;999.90;;;;;;;12.44;100.00;93999.38;5017803;28;20217;-66
2022/12/23 09:38:52;;;;;;;1999.90;999.90;;;;;;;12.52;100.00;93981.44;5017022;28;20182;-62
2022/12/23 09:41:32;;;;;;;1999.90;999.90;;;;;;;12.65;100.00;93979.38;5017299;28;20236;-63
2022/12/23 09:44:20;;;;;;;1999.90;999.90;;;;;;;12.70;100.00;93981.53;5018075;28;20217;-63
2022/12/23 09:46:52;;;;;;;1999.90;999.90;;;;;;;12.66;100.00;93997.34;5017932;28;20204;-63
2022/12/23 09:49:20;;;;;;;1999.90;999.90;;;;;;;12.65;100.00;94012.25;5017781;28;20171;-63
2022/12/23 09:51:46;;;;;;;1999.90;999.90;;;;;;;13.06;100.00;94015.34;5016770;28;20189;-64
2022/12/23 09:54:18;;;;;;;1999.90;999.90;;;;;;;13.12;100.00;94056.63;5017002;28;20176;-63
2022/12/23 09:56:57;;;;;;;1999.90;999.90;;;;;;;13.10;100.00;94086.44;5017083;28;20234;-65
2022/12/23 09:59:34;;;;;;;1999.90;999.90;;;;;;;13.05;100.00;94122.69;5017016;28;20265;-64
2022/12/23 10:02:26;;;;;;;1999.90;999.90;;;;;;;13.03;100.00;94149.75;5016868;28;20174;-65
2022/12/23 10:05:21;;;;;;;1999.90;999.90;;;;;;;12.97;100.00;94159.75;5016729;28;20395;-64
2022/12/23 10:08:02;;;;;;;1999.90;999.90;;;;;;;13.01;100.00;94155.69;5010952;28;20222;-64
2022/12/23 10:10:41;;;;;;;1999.90;999.90;;;;;;;12.95;100.00;94178.63;5017041;28;20194;-64
2022/12/23 10:13:17;;;;;;;1999.90;999.90;;;;;;;12.90;100.00;94168.25;5017247;28;20175;-65
2022/12/23 10:15:47;;;;;;;1999.90;999.90;;;;;;;12.91;100.00;94173.28;5017230;28;20171;-64
2022/12/23 10:18:40;;;;;;;1999.90;999.90;;;;;;;12.92;100.00;94174.03;5016586;28;20170;-72
2022/12/23 10:21:13;;;;;;;1999.90;999.90;;;;;;;12.97;100.00;94170.72;5016006;28;20288;-73
2022/12/23 10:23:43;;;;;;;1999.90;999.90;;;;;;;12.95;100.00;94178.63;5017200;28;20172;-74
2022/12/23 10:26:42;;;;;;;1999.90;999.90;;;;;;;13.01;100.00;94182.34;5016193;28;20260;-72
2022/12/23 10:29:20;;;;;;;1999.90;999.90;;;;;;;13.01;100.00;94165.91;4986946;28;20183;-74
2022/12/23 10:32:03;;;;;;;1999.90;999.90;;;;;;;12.97;100.00;94165.25;5015344;28;20178;-68
2022/12/23 10:34:36;;;;;;;1999.90;999.90;;;;;;;12.88;100.00;94162.44;5016864;28;20241;-72
2022/12/23 10:37:22;;;;;;;1999.90;999.90;;;;;;;12.83;100.00;94160.28;5016749;28;20183;-67
2022/12/23 10:40:20;;;;;;;1999.90;999.90;;;;;;;12.85;100.00;94152.34;5015779;28;20190;-66
2022/12/23 10:43:09;;;;;;;1999.90;999.90;;;;;;;12.87;100.00;94149.94;5016401;28;20175;-65
2022/12/23 10:45:54;;;;;;;1999.90;999.90;;;;;;;12.87;100.00;94139.75;5016571;28;20179;-67
2022/12/23 10:48:34;;;;;;;1999.90;999.90;;;;;;;12.93;100.00;94135.22;5016983;28;20209;-71
2022/12/23 10:51:13;;;;;;;1999.90;999.90;;;;;;;12.91;100.00;94142.34;5015928;28;20171;-74
2022/12/23 10:53:56;;;;;;;1999.90;999.90;;;;;;;12.86;100.00;94145.69;5015813;28;20181;-63
2022/12/23 10:56:22;;;;;;;1999.90;999.90;;;;;;;12.78;100.00;94125.22;5015882;28;20178;-63
2022/12/23 10:58:55;;;;;;;1999.90;999.90;;;;;;;12.59;100.00;94085.25;5015775;28;20194;-64
2022/12/23 11:01:21;;;;;;;1999.90;999.90;;;;;;;12.47;100.00;94047.75;5015973;28;20194;-61
2022/12/23 11:03:59;;;;;;;1999.90;999.90;;;;;;;12.44;100.00;94007.59;5015792;28;20204;-65
2022/12/23 11:06:25;;;;;;;1999.90;999.90;;;;;;;12.40;100.00;93968.63;5015488;28;20229;-63
2022/12/23 11:08:51;;;;;;;1999.90;999.90;;;;;;;12.36;100.00;93930.44;5015304;28;20174;-69
2022/12/23 11:11:16;;;;;;;1999.90;999.90;;;;;;;12.42;100.00;93895.03;5016087;28;20231;-65
2022/12/23 11:13:45;;;;;;;1999.90;999.90;;;;;;;12.46;100.00;93868.28;5015858;28;20228;-68
2022/12/23 11:16:11;;;;;;;1999.90;999.90;;;;;;;12.49;100.00;93850.91;5015625;28;20177;-67
2022/12/23 11:18:36;;;;;;;1999.90;999.90;;;;;;;12.52;100.00;93837.09;5015412;28;20178;-65
2022/12/23 11:21:05;;;;;;;1999.90;999.90;;;;;;;12.60;100.00;93827.38;5014971;28;20215;-66
2022/12/23 11:23:34;;;;;;;1999.90;999.90;;;;;;;12.64;100.00;93830.72;5014976;28;20235;-66
2022/12/23 11:26:05;;;;;;;1999.90;999.90;;;;;;;12.62;100.00;93843.34;5015228;28;20170;-67